createdAt,value
2018-04-15T00:00:41.215Z,100080.25
2018-04-15T00:03:07.155Z,100070.08
2018-04-15T00:05:33.128Z,100069.66
2018-04-15T00:07:59.064Z,100070.52
2018-04-15T00:10:25.019Z,100064.19
2018-04-15T00:12:51.021Z,100060.81
2018-04-15T00:15:16.970Z,100057.41
2018-04-15T00:17:42.935Z,100057.38
2018-04-15T00:20:08.879Z,100052.77
2018-04-15T00:22:34.822Z,100059.94
2018-04-15T00:25:00.751Z,100051.50
2018-04-15T00:27:26.711Z,100054.48
2018-04-15T00:29:52.662Z,100051.95
2018-04-15T00:32:18.617Z,100038.84
2018-04-15T00:34:44.573Z,100036.73
2018-04-15T00:37:10.527Z,100032.95
2018-04-15T00:39:36.483Z,100024.50
2018-04-15T00:42:02.445Z,100018.18
2018-04-15T00:44:28.476Z,100017.77
2018-04-15T00:46:54.568Z,100012.70
2018-04-15T00:49:20.525Z,100013.55
2018-04-15T00:51:46.486Z,99978.95
2018-04-15T00:54:12.452Z,100013.53
2018-04-15T00:56:38.398Z,100015.66
2018-04-15T00:59:04.370Z,100008.03
2018-04-15T01:01:30.420Z,100010.11
2018-04-15T01:03:56.376Z,100008.44
2018-04-15T01:06:22.334Z,100003.37
2018-04-15T01:08:48.280Z,100008.05
2018-04-15T01:11:14.213Z,100004.62
2018-04-15T01:13:40.147Z,99996.64
2018-04-15T01:16:06.116Z,99995.80
2018-04-15T01:18:32.080Z,99997.50
2018-04-15T01:20:58.066Z,99989.05
2018-04-15T01:23:24.189Z,99986.47
2018-04-15T01:25:50.169Z,99990.31
2018-04-15T01:28:16.107Z,99993.22
2018-04-15T01:30:42.075Z,99991.13
2018-04-15T01:33:08.031Z,99984.38
2018-04-15T01:35:33.992Z,99979.72
2018-04-15T01:37:59.922Z,99978.94
2018-04-15T01:40:25.881Z,99985.24
2018-04-15T01:42:51.825Z,99975.53
2018-04-15T01:45:17.786Z,99972.10
2018-04-15T01:47:43.760Z,99977.64
2018-04-15T01:50:09.706Z,99977.57
2018-04-15T01:52:35.674Z,99974.73
2018-04-15T01:55:01.599Z,99973.41
2018-04-15T01:57:27.562Z,99966.70
2018-04-15T01:59:53.549Z,99966.27
2018-04-15T02:02:19.486Z,99966.68
2018-04-15T02:04:45.429Z,99965.88
2018-04-15T02:07:11.402Z,99969.20
2018-04-15T02:09:37.337Z,99963.69
2018-04-15T02:12:03.332Z,99965.86
2018-04-15T02:14:29.281Z,99961.55
2018-04-15T02:16:55.273Z,99959.48
2018-04-15T02:19:21.262Z,99956.09
2018-04-15T02:21:47.218Z,99951.50
2018-04-15T02:24:13.169Z,99954.84
2018-04-15T02:26:39.199Z,99951.53
2018-04-15T02:29:05.168Z,99950.67
2018-04-15T02:31:31.113Z,99944.36
2018-04-15T02:33:57.066Z,99940.98
2018-04-15T02:36:23.024Z,99936.77
2018-04-15T02:38:49.003Z,99935.05
2018-04-15T02:41:14.934Z,99932.93
2018-04-15T02:43:40.905Z,99930.85
2018-04-15T02:46:06.841Z,99932.94
2018-04-15T02:48:32.779Z,99926.63
2018-04-15T02:50:58.727Z,99920.62
2018-04-15T02:53:24.694Z,99919.44
2018-04-15T02:55:50.644Z,99905.06
2018-04-15T02:58:16.619Z,99896.28
2018-04-15T03:00:42.577Z,99903.02
2018-04-15T03:03:08.551Z,99900.09
2018-04-15T03:05:34.483Z,99894.17
2018-04-15T03:08:00.488Z,99898.80
2018-04-15T03:10:26.437Z,99899.27
2018-04-15T03:12:52.383Z,99903.88
2018-04-15T03:15:18.317Z,99903.42
2018-04-15T03:17:44.294Z,99897.13
2018-04-15T03:20:10.676Z,99896.70
2018-04-15T03:22:36.662Z,99887.42
2018-04-15T03:25:02.619Z,99886.94
2018-04-15T03:27:28.577Z,99885.30
2018-04-15T03:29:54.509Z,99876.89
2018-04-15T03:32:20.462Z,99881.06
2018-04-15T03:34:46.411Z,99885.22
2018-04-15T03:37:12.363Z,99894.02
2018-04-15T03:39:38.291Z,99891.07
2018-04-15T03:42:04.271Z,99889.86
2018-04-15T03:44:30.253Z,99883.16
2018-04-15T03:46:56.222Z,99880.67
2018-04-15T03:49:22.165Z,99888.27
2018-04-15T03:51:48.436Z,99875.55
2018-04-15T03:54:14.376Z,99864.15
2018-04-15T03:56:40.321Z,99869.17
2018-04-15T03:59:06.292Z,99869.17
2018-04-15T04:01:32.227Z,99869.64
2018-04-15T04:03:58.202Z,99869.26
2018-04-15T04:06:24.225Z,99870.02
2018-04-15T04:08:50.205Z,99879.82
2018-04-15T04:11:16.186Z,99886.98
2018-04-15T04:13:42.158Z,99884.02
2018-04-15T04:16:08.146Z,99883.98
2018-04-15T04:18:34.129Z,99886.50
2018-04-15T04:21:00.080Z,99883.94
2018-04-15T04:23:26.035Z,99892.75
2018-04-15T04:25:51.988Z,99896.50
2018-04-15T04:28:17.936Z,99896.41
2018-04-15T04:30:43.882Z,99897.73
2018-04-15T04:33:09.909Z,99892.95
2018-04-15T04:35:35.879Z,99891.38
2018-04-15T04:38:01.835Z,99882.09
2018-04-15T04:40:27.761Z,99883.03
2018-04-15T04:42:53.720Z,99882.95
2018-04-15T04:45:19.691Z,99892.24
2018-04-15T04:47:45.654Z,99888.44
2018-04-15T04:50:11.604Z,99895.55
2018-04-15T04:52:37.535Z,99880.84
2018-04-15T04:55:03.484Z,99872.03
2018-04-15T04:57:29.426Z,99870.78
2018-04-15T04:59:55.380Z,99866.58
2018-04-15T05:02:21.358Z,99871.75
2018-04-15T05:04:49.351Z,99869.67
2018-04-15T05:07:15.283Z,99864.20
2018-04-15T05:09:41.210Z,99866.67
2018-04-15T05:12:07.147Z,99855.33
2018-04-15T05:14:33.081Z,99855.41
2018-04-15T05:17:01.094Z,99846.52
2018-04-15T05:21:59.804Z,99844.47
2018-04-15T05:24:25.754Z,99838.58
2018-04-15T05:26:51.682Z,99833.92
2018-04-15T05:29:17.630Z,99841.52
2018-04-15T05:31:43.585Z,99840.66
2018-04-15T05:34:09.527Z,99844.47
2018-04-15T05:36:35.485Z,99839.77
2018-04-15T05:39:01.433Z,99844.84
2018-04-15T05:41:27.394Z,99841.07
2018-04-15T05:43:53.378Z,99838.54
2018-04-15T05:46:19.337Z,99834.70
2018-04-15T05:48:45.328Z,99827.51
2018-04-15T05:51:11.304Z,99829.08
2018-04-15T05:53:37.274Z,99820.63
2018-04-15T05:56:03.547Z,99817.92
2018-04-15T05:58:29.716Z,99812.22
2018-04-15T06:00:55.731Z,99810.66
2018-04-15T06:03:21.696Z,99806.24
2018-04-15T06:05:47.642Z,99802.53
2018-04-15T06:08:13.632Z,99792.99
2018-04-15T06:10:40.032Z,99786.84
2018-04-15T06:13:06.038Z,99767.56
2018-04-15T06:15:32.099Z,99762.39
2018-04-15T06:17:58.135Z,99749.31
2018-04-15T06:20:24.204Z,99753.39
2018-04-15T06:22:50.185Z,99739.87
2018-04-15T06:25:16.251Z,99742.83
2018-04-15T06:27:42.293Z,99739.52
2018-04-15T06:30:08.297Z,99730.22
2018-04-15T06:32:34.279Z,99724.36
2018-04-15T06:35:00.758Z,99720.80
2018-04-15T06:37:26.808Z,99721.13
2018-04-15T06:39:52.765Z,99714.27
2018-04-15T06:42:18.763Z,99709.33
2018-04-15T06:44:44.781Z,99704.73
2018-04-15T06:47:10.774Z,99704.53
2018-04-15T06:49:36.811Z,99701.39
2018-04-15T06:52:02.790Z,99706.86
2018-04-15T06:54:28.747Z,99705.45
2018-04-15T06:56:54.711Z,99706.83
2018-04-15T06:59:25.689Z,99719.24
2018-04-15T07:01:51.665Z,99715.16
2018-04-15T07:04:17.647Z,99721.16
2018-04-15T07:06:43.626Z,99729.53
2018-04-15T07:09:09.603Z,99730.55
2018-04-15T07:11:35.601Z,99728.73
2018-04-15T07:14:01.617Z,99721.54
2018-04-15T07:16:27.647Z,99718.73
2018-04-15T07:18:53.615Z,99716.67
2018-04-15T07:21:19.570Z,99703.91
2018-04-15T07:23:45.532Z,99702.54
2018-04-15T07:26:11.553Z,99690.89
2018-04-15T07:28:37.617Z,99690.17
2018-04-15T07:31:03.679Z,99677.03
2018-04-15T07:33:29.692Z,99682.56
2018-04-15T07:35:55.741Z,99683.15
2018-04-15T07:38:21.876Z,99681.16
2018-04-15T07:40:47.877Z,99680.36
2018-04-15T07:43:13.857Z,99674.66
2018-04-15T07:45:39.814Z,99675.64
2018-04-15T07:48:05.879Z,99676.97
2018-04-15T07:50:31.901Z,99675.66
2018-04-15T07:52:57.986Z,99662.09
2018-04-15T07:55:23.960Z,99664.43
2018-04-15T07:57:49.962Z,99666.51
2018-04-15T08:00:15.975Z,99659.52
2018-04-15T08:02:41.967Z,99666.55
2018-04-15T08:05:07.937Z,99660.40
2018-04-15T08:07:33.991Z,99652.92
2018-04-15T08:10:00.397Z,99651.08
2018-04-15T08:12:26.360Z,99656.30
2018-04-15T08:14:52.472Z,99655.44
2018-04-15T08:17:18.469Z,99650.50
2018-04-15T08:19:44.555Z,99655.54
2018-04-15T08:22:10.582Z,99650.70
2018-04-15T08:24:36.642Z,99650.41
2018-04-15T08:27:02.708Z,99642.80
2018-04-15T08:29:29.161Z,99643.05
2018-04-15T08:31:55.192Z,99636.44
2018-04-15T08:34:21.173Z,99640.58
2018-04-15T08:36:47.649Z,99634.34
2018-04-15T08:39:13.623Z,99625.74
2018-04-15T08:41:39.656Z,99622.61
2018-04-15T08:44:05.605Z,99624.42
2018-04-15T08:46:31.575Z,99632.12
2018-04-15T08:48:57.551Z,99625.05
2018-04-15T08:51:23.481Z,99617.64
2018-04-15T08:53:49.456Z,99606.43
2018-04-15T08:56:15.578Z,99606.97
2018-04-15T08:58:41.625Z,99600.56
2018-04-15T09:01:07.609Z,99613.69
2018-04-15T09:03:33.557Z,99608.89
2018-04-15T09:05:59.518Z,99592.11
2018-04-15T09:08:25.489Z,99581.18
2018-04-15T09:10:51.565Z,99580.30
2018-04-15T09:13:17.545Z,99580.08
2018-04-15T09:15:43.538Z,99586.96
2018-04-15T09:18:09.558Z,99577.61
2018-04-15T09:20:35.526Z,99578.08
2018-04-15T09:23:01.533Z,99577.32
2018-04-15T09:25:27.515Z,99574.42
2018-04-15T09:27:53.490Z,99578.59
2018-04-15T09:30:19.534Z,99579.83
2018-04-15T09:32:45.498Z,99570.47
2018-04-15T09:35:11.463Z,99572.08
2018-04-15T09:37:37.475Z,99570.17
2018-04-15T09:40:03.482Z,99564.72
2018-04-15T09:42:29.458Z,99564.51
2018-04-15T09:44:55.434Z,99569.19
2018-04-15T09:47:21.449Z,99564.73
2018-04-15T09:49:47.491Z,99565.52
2018-04-15T09:52:13.529Z,99565.31
2018-04-15T09:54:39.508Z,99565.02
2018-04-15T09:57:05.557Z,99562.04
2018-04-15T09:59:31.650Z,99555.75
2018-04-15T10:01:57.649Z,99556.48
2018-04-15T10:04:23.626Z,99554.98
2018-04-15T10:06:49.565Z,99568.25
2018-04-15T10:09:15.525Z,99567.09
2018-04-15T10:11:41.495Z,99578.08
2018-04-15T10:14:07.469Z,99569.39
2018-04-15T10:16:33.470Z,99568.24
2018-04-15T10:18:59.425Z,99570.45
2018-04-15T10:21:25.430Z,99564.75
2018-04-15T10:23:51.366Z,99565.99
2018-04-15T10:26:17.389Z,99572.32
2018-04-15T10:28:43.400Z,99569.20
2018-04-15T10:31:09.370Z,99566.52
2018-04-15T10:33:35.331Z,99558.68
2018-04-15T10:36:01.325Z,99562.17
2018-04-15T10:38:27.280Z,99557.92
2018-04-15T10:40:53.261Z,99556.22
2018-04-15T10:43:19.276Z,99557.12
2018-04-15T10:45:45.264Z,99553.38
2018-04-15T10:48:11.598Z,99556.12
2018-04-15T10:50:37.532Z,99550.67
2018-04-15T10:53:03.459Z,99542.08
2018-04-15T10:55:29.498Z,99537.64
2018-04-15T10:57:55.521Z,99534.64
2018-04-15T11:00:21.516Z,99545.14
2018-04-15T11:02:47.463Z,99542.64
2018-04-15T11:05:13.418Z,99539.90
2018-04-15T11:07:39.376Z,99529.86
2018-04-15T11:10:05.309Z,99523.39
2018-04-15T11:12:31.279Z,99522.48
2018-04-15T11:14:57.265Z,99522.34
2018-04-15T11:17:23.202Z,99519.84
2018-04-15T11:19:49.188Z,99515.06
2018-04-15T11:22:15.153Z,99510.62
2018-04-15T11:24:41.098Z,99519.33
2018-04-15T11:27:07.038Z,99496.16
2018-04-15T11:29:33.027Z,99517.00
2018-04-15T11:31:59.038Z,99517.48
2018-04-15T11:34:24.998Z,99523.39
2018-04-15T11:36:51.025Z,99516.30
2018-04-15T11:39:17.017Z,99514.31
2018-04-15T11:41:42.997Z,99515.32
2018-04-15T11:44:08.929Z,99515.98
2018-04-15T11:46:34.874Z,99515.55
2018-04-15T11:49:01.161Z,99519.33
2018-04-15T11:51:27.858Z,99515.59
2018-04-15T11:53:54.135Z,99514.27
2018-04-15T11:56:20.113Z,99512.22
2018-04-15T11:58:46.305Z,99509.34
2018-04-15T12:01:12.577Z,99510.24
2018-04-15T12:03:38.545Z,99503.05
2018-04-15T12:06:04.610Z,99492.84
2018-04-15T12:08:30.605Z,99483.61
2018-04-15T12:10:56.560Z,99490.89
2018-04-15T12:13:22.578Z,99485.36
2018-04-15T12:15:48.551Z,99480.68
2018-04-15T12:18:14.528Z,99479.26
2018-04-15T12:20:40.480Z,99480.06
2018-04-15T12:23:06.438Z,99469.34
2018-04-15T12:25:32.537Z,99479.88
2018-04-15T12:27:58.538Z,99473.73
2018-04-15T12:30:24.475Z,99472.86
2018-04-15T12:32:50.447Z,99466.16
2018-04-15T12:35:16.378Z,99464.84
2018-04-15T12:37:42.399Z,99456.85
2018-04-15T12:40:08.357Z,99470.03
2018-04-15T12:42:34.379Z,99462.30
2018-04-15T12:45:00.358Z,99468.36
2018-04-15T12:47:26.380Z,99458.88
2018-04-15T12:49:52.410Z,99455.22
2018-04-15T12:52:18.379Z,99452.45
2018-04-15T12:54:44.370Z,99443.56
2018-04-15T12:57:10.392Z,99440.05
2018-04-15T12:59:36.405Z,99438.98
2018-04-15T13:02:02.361Z,99433.40
2018-04-15T13:04:28.339Z,99426.47
2018-04-15T13:06:56.324Z,99420.63
2018-04-15T13:09:22.277Z,99425.31
2018-04-15T13:11:48.237Z,99419.08
2018-04-15T13:14:14.189Z,99417.44
2018-04-15T13:16:40.158Z,99417.20
2018-04-15T13:19:06.147Z,99417.83
2018-04-15T13:21:32.109Z,99412.80
2018-04-15T13:23:58.108Z,99399.16
2018-04-15T13:26:24.090Z,99411.42
2018-04-15T13:28:50.103Z,99403.55
2018-04-15T13:31:16.117Z,99400.17
2018-04-15T13:33:42.085Z,99407.33
2018-04-15T13:36:08.041Z,99401.25
2018-04-15T13:38:34.024Z,99399.11
2018-04-15T13:40:59.975Z,99391.69
2018-04-15T13:43:25.963Z,99379.56
2018-04-15T13:45:51.933Z,99386.38
2018-04-15T13:48:17.868Z,99371.72
2018-04-15T13:50:43.877Z,99368.28
2018-04-15T13:53:09.977Z,99371.97
2018-04-15T13:55:35.911Z,99373.50
2018-04-15T13:58:01.875Z,99373.63
2018-04-15T14:00:27.825Z,99367.84
2018-04-15T14:02:53.781Z,99369.17
2018-04-15T14:05:19.736Z,99367.50
2018-04-15T14:07:45.778Z,99367.94
2018-04-15T14:10:11.748Z,99364.18
2018-04-15T14:12:37.713Z,99368.19
2018-04-15T14:15:03.673Z,99366.19
2018-04-15T14:17:33.579Z,99372.66
2018-04-15T14:19:59.556Z,99370.15
2018-04-15T14:22:25.511Z,99365.04
2018-04-15T14:24:53.290Z,99360.70
2018-04-15T14:27:19.338Z,99365.41
2018-04-15T14:29:45.279Z,99365.62
2018-04-15T14:32:11.249Z,99368.02
2018-04-15T14:34:37.222Z,99367.05
2018-04-15T14:37:03.196Z,99362.59
2018-04-15T14:39:29.206Z,99347.74
2018-04-15T14:41:55.171Z,99341.52
2018-04-15T14:44:21.114Z,99341.23
2018-04-15T14:46:47.514Z,99341.64
2018-04-15T14:49:14.373Z,99332.21
2018-04-15T14:51:40.535Z,99330.87
2018-04-15T14:54:06.632Z,99327.77
2018-04-15T14:56:32.945Z,99328.50
2018-04-15T14:58:59.783Z,99325.02
2018-04-15T15:01:26.292Z,99328.41
2018-04-15T15:03:52.582Z,99316.41
2018-04-15T15:06:19.817Z,99314.37
2018-04-15T15:08:46.741Z,99312.46
2018-04-15T15:11:15.172Z,99319.42
2018-04-15T15:13:45.166Z,99315.83
2018-04-15T15:16:12.807Z,99313.38
2018-04-15T15:23:53.844Z,99321.67
2018-04-15T15:26:20.069Z,99325.27
2018-04-15T15:31:19.051Z,99317.06
2018-04-15T15:33:46.972Z,99314.91
2018-04-15T15:36:12.950Z,99314.00
2018-04-15T15:38:40.168Z,99311.33
2018-04-15T15:41:08.191Z,99310.65
2018-04-15T15:43:34.301Z,99315.08
2018-04-15T15:46:01.103Z,99306.32
2018-04-15T15:48:27.149Z,99309.27
2018-04-15T15:50:53.136Z,99309.61
2018-04-15T15:53:19.946Z,99314.60
2018-04-15T15:55:45.961Z,99312.41
2018-04-15T16:00:47.158Z,99313.99
2018-04-15T16:03:13.247Z,99323.73
2018-04-15T16:05:39.263Z,99323.00
2018-04-15T16:08:05.347Z,99326.67
2018-04-15T16:10:31.333Z,99327.81
2018-04-15T16:12:57.300Z,99331.03
2018-04-15T16:15:23.336Z,99330.42
2018-04-15T16:17:50.506Z,99327.81
2018-04-15T16:20:16.621Z,99319.23
2018-04-15T16:22:43.675Z,99321.22
2018-04-15T16:25:10.725Z,99320.19
2018-04-15T16:27:36.778Z,99313.87
2018-04-15T16:30:02.922Z,99307.04
2018-04-15T16:32:28.933Z,99305.81
2018-04-15T16:34:54.931Z,99297.23
2018-04-15T16:37:21.000Z,99283.67
2018-04-15T16:39:47.173Z,99263.28
2018-04-15T16:42:18.040Z,99260.73
2018-04-15T16:44:44.068Z,99259.63
2018-04-15T16:47:11.155Z,99260.78
2018-04-15T16:49:37.220Z,99267.07
2018-04-15T16:52:03.227Z,99272.95
2018-04-15T16:54:29.312Z,99276.32
2018-04-15T16:56:55.708Z,99278.02
2018-04-15T16:59:23.550Z,99276.92
2018-04-15T17:01:49.535Z,99269.67
2018-04-15T17:04:16.449Z,99266.51
2018-04-15T17:06:42.549Z,99263.17
2018-04-15T17:09:11.868Z,99263.52
2018-04-15T17:11:41.295Z,99254.39
2018-04-15T17:14:07.355Z,99261.70
2018-04-15T17:16:33.442Z,99266.32
2018-04-15T17:18:59.526Z,99263.82
2018-04-15T17:21:26.722Z,99264.75
2018-04-15T17:23:53.598Z,99269.14
2018-04-15T17:26:19.633Z,99273.81
2018-04-15T17:28:45.810Z,99276.00
2018-04-15T17:31:13.620Z,99275.11
2018-04-15T17:33:39.706Z,99279.52
2018-04-15T17:36:05.777Z,99278.64
2018-04-15T17:38:31.858Z,99278.11
2018-04-15T17:40:58.048Z,99280.79
2018-04-15T17:43:24.011Z,99282.61
2018-04-15T17:45:51.203Z,99283.11
2018-04-15T17:48:17.362Z,99285.08
2018-04-15T17:50:43.486Z,99294.39
2018-04-15T17:53:09.545Z,99295.71
2018-04-15T17:55:35.591Z,99299.97
2018-04-15T17:58:01.639Z,99303.53
2018-04-15T18:00:27.655Z,99310.50
2018-04-15T18:02:53.668Z,99307.66
2018-04-15T18:05:19.694Z,99310.78
2018-04-15T18:07:45.682Z,99313.30
2018-04-15T18:10:11.731Z,99313.72
2018-04-15T18:12:37.753Z,99311.27
2018-04-15T18:15:03.953Z,99312.14
2018-04-15T18:17:29.973Z,99316.99
2018-04-15T18:19:55.994Z,99322.72
2018-04-15T18:24:53.474Z,99332.25
2018-04-15T18:27:19.422Z,99332.72
2018-04-15T18:29:45.487Z,99337.89
2018-04-15T18:32:11.444Z,99340.45
2018-04-15T18:34:37.463Z,99334.00
2018-04-15T18:37:03.543Z,99328.84
2018-04-15T18:39:29.729Z,99328.00
2018-04-15T18:41:55.717Z,99331.48
2018-04-15T18:44:21.789Z,99336.36
2018-04-15T18:46:47.893Z,99338.78
2018-04-15T18:49:13.991Z,99333.47
2018-04-15T18:51:40.078Z,99336.71
2018-04-15T18:54:06.166Z,99336.23
2018-04-15T18:56:32.679Z,99329.97
2018-04-15T18:58:58.749Z,99325.70
2018-04-15T19:01:24.795Z,99331.84
2018-04-15T19:03:50.821Z,99328.91
2018-04-15T19:06:16.863Z,99335.25
2018-04-15T19:08:43.066Z,99336.34
2018-04-15T19:11:09.220Z,99339.13
2018-04-15T19:13:35.474Z,99348.56
2018-04-15T19:16:01.569Z,99349.80
2018-04-15T19:18:27.687Z,99340.53
2018-04-15T19:20:53.818Z,99330.23
2018-04-15T19:25:52.830Z,99343.70
2018-04-15T19:28:18.930Z,99345.92
2018-04-15T19:30:45.056Z,99348.00
2018-04-15T19:33:12.133Z,99341.44
2018-04-15T19:35:41.985Z,99336.05
2018-04-15T19:38:08.069Z,99339.84
2018-04-15T19:40:34.169Z,99344.42
2018-04-15T19:43:00.375Z,99337.67
2018-04-15T19:45:26.389Z,99335.16
2018-04-15T19:47:52.657Z,99332.41
2018-04-15T19:50:18.738Z,99329.52
2018-04-15T19:52:44.886Z,99297.95
2018-04-15T19:55:11.088Z,99324.72
2018-04-15T19:57:37.208Z,99327.99
2018-04-15T20:00:03.411Z,99321.75
2018-04-15T20:02:30.368Z,99318.48
2018-04-15T20:04:56.427Z,99324.05
2018-04-15T20:07:22.441Z,99329.56
2018-04-15T20:09:50.599Z,99324.68
2018-04-15T20:12:16.802Z,99310.42
2018-04-15T20:14:42.919Z,99297.31
2018-04-15T20:17:09.934Z,99309.88
2018-04-15T20:19:36.082Z,99307.41
2018-04-15T20:22:02.245Z,99297.41
2018-04-15T20:24:28.496Z,99298.63
2018-04-15T20:26:54.726Z,99299.56
2018-04-15T20:29:20.793Z,99301.25
2018-04-15T20:31:46.883Z,99295.57
2018-04-15T20:34:12.919Z,99298.45
2018-04-15T20:36:38.984Z,99294.22
2018-04-15T20:39:05.112Z,99296.09
2018-04-15T20:41:31.219Z,99290.33
2018-04-15T20:43:57.208Z,99285.08
2018-04-15T20:46:23.209Z,99284.30
2018-04-15T20:48:49.206Z,99284.59
2018-04-15T20:51:15.204Z,99290.36
2018-04-15T20:53:41.278Z,99285.81
2018-04-15T20:56:07.326Z,99279.67
2018-04-15T20:58:33.343Z,99281.74
2018-04-15T21:00:59.397Z,99281.23
2018-04-15T21:03:25.490Z,99278.57
2018-04-15T21:05:51.709Z,99278.98
2018-04-15T21:08:17.710Z,99271.87
2018-04-15T21:10:44.076Z,99271.52
2018-04-15T21:13:10.182Z,99282.91
2018-04-15T21:15:36.531Z,99282.16
2018-04-15T21:18:02.645Z,99286.19
2018-04-15T21:20:28.670Z,99287.42
2018-04-15T21:22:54.686Z,99285.19
2018-04-15T21:25:20.776Z,99270.03
2018-04-15T21:27:46.828Z,99273.73
2018-04-15T21:30:13.061Z,99278.47
2018-04-15T21:32:39.139Z,99281.19
2018-04-15T21:35:05.361Z,99289.20
2018-04-15T21:37:31.411Z,99291.09
2018-04-15T21:39:57.513Z,99291.44
2018-04-15T21:42:23.524Z,99297.56
2018-04-15T21:44:49.587Z,99294.79
2018-04-15T21:47:15.659Z,99294.66
2018-04-15T21:49:41.770Z,99288.91
2018-04-15T21:52:07.824Z,99293.41
2018-04-15T21:54:33.856Z,99290.09
2018-04-15T21:56:59.949Z,99287.98
2018-04-15T21:59:26.038Z,99287.67
2018-04-15T22:01:52.075Z,99291.74
2018-04-15T22:04:18.147Z,99290.89
2018-04-15T22:06:44.363Z,99294.70
2018-04-15T22:09:10.382Z,99294.80
2018-04-15T22:11:36.874Z,99299.30
2018-04-15T22:14:02.898Z,99290.77
2018-04-15T22:16:29.055Z,99290.86
2018-04-15T22:18:55.203Z,99280.12
2018-04-15T22:21:21.212Z,99293.06
2018-04-15T22:23:47.204Z,99291.94
2018-04-15T22:26:13.211Z,99301.80
2018-04-15T22:28:39.291Z,99299.07
2018-04-15T22:31:05.320Z,99299.95
2018-04-15T22:33:31.621Z,99301.06
2018-04-15T22:35:58.449Z,99304.47
2018-04-15T22:38:25.269Z,99299.15
2018-04-15T22:40:51.326Z,99289.36
2018-04-15T22:43:17.398Z,99272.67
2018-04-15T22:45:43.429Z,99269.48
2018-04-15T22:48:09.568Z,99268.52
2018-04-15T22:50:35.659Z,99266.35
2018-04-15T22:53:01.742Z,99257.23
2018-04-15T22:55:27.911Z,99256.08
2018-04-15T22:57:53.978Z,99262.08
2018-04-15T23:00:19.990Z,99267.23
2018-04-15T23:02:46.139Z,99263.16
2018-04-15T23:05:12.200Z,99264.84
2018-04-15T23:07:38.288Z,99269.66
2018-04-15T23:10:04.370Z,99267.78
2018-04-15T23:12:30.709Z,99270.70
2018-04-15T23:14:56.784Z,99268.34
2018-04-15T23:17:22.921Z,99266.77
2018-04-15T23:19:48.963Z,99257.23
2018-04-15T23:22:15.194Z,99260.00
2018-04-15T23:24:41.324Z,99263.47
2018-04-15T23:27:07.370Z,99259.47
2018-04-15T23:29:33.428Z,99256.60
2018-04-15T23:31:59.504Z,99261.92
2018-04-15T23:34:25.616Z,99259.84
2018-04-15T23:36:52.579Z,99240.80
2018-04-15T23:39:19.438Z,99266.77
2018-04-15T23:41:45.521Z,99267.09
2018-04-15T23:44:11.635Z,99262.05
2018-04-15T23:46:37.651Z,99268.00
2018-04-15T23:49:03.739Z,99260.88
2018-04-15T23:51:29.800Z,99262.10
2018-04-15T23:53:55.813Z,99264.38
2018-04-15T23:56:22.893Z,99259.30
2018-04-15T23:58:48.909Z,99256.45
